Report METAR

 

LIPQ - Ronchi Legionari, Italy
Distance from station: SSO 4km
Dati ricevuti: 19/11/2017 07:50
Parz. nuvoloso
Parz. nuvoloso
 Vento da Variabile
Vento: Variabile 4 km/h
Temperatura: 4°C
P.to Rugiada: 2°C
Umidità: 87%
Barometro: 1013 hPa
Nuvole: Parz. nuvoloso
Visibility: 10 km
Cloud details: Few Clouds 1524 m
Parz. nuvoloso 2134 m
2017/11/19 07:50 LIPQ 190750Z VRB02KT 9999 FEW050 SCT070 04/02 Q1013
LIVT - Trieste, Italy
Distance from station: SE 27km
Dati ricevuti: 19/11/2017 07:55
Parz. nuvoloso
Parz. nuvoloso
 Vento da calmo
Vento: Calma
Temperatura: 8°C
P.to Rugiada: 4°C
Umidità: 76%
Barometro: 1013 hPa
Nuvole: Parz. nuvoloso
Visibility: 10 km
Cloud details: Parz. nuvoloso 1219 m
2017/11/19 07:55 LIVT 190755Z 00000KT 9999 SCT040 08/04 Q1013 RMK BKN BKN070 QUK 0 QUL 0 VIS MAR 20 KM VIS MIN 9999
 
LIPI - Rivolto (it-Afb), Italy
Distance from station: ONO 37km
Dati ricevuti: 18/11/2017 09:55
DATI Obsoleti
Sereno
Sereno
 Vento da Variabile
Vento: Variabile 0 km/h
Temperatura: 12°C
P.to Rugiada: 4°C
Umidità: 58%
Barometro: 1018 hPa
Summary: Sereno
Visibility: superiore a 10 km
2017/11/18 09:55 LIPI 180955Z /////KT CAVOK 12/04 Q1018 RMK SKC VIS MIN 9999 WIND THR06 03004KT WIND THR24 02004KT BLU
LJPZ - Portoroz, Slovenia
Distance from station: SSE 43km
Dati ricevuti: 19/11/2017 08:00
Sereno
Sereno
 Vento da ESE
Vento: ESE 13 km/h
Temperatura: 6°C
Temperatura Vento: 3°C
P.to Rugiada: 2°C
Umidità: 76%
Barometro: 1013 hPa
Summary: Sereno
Visibility: superiore a 10 km
2017/11/19 08:00 LJPZ 190800Z 12007KT CAVOK 06/02 Q1013
 
LIPA - Aviano (it/Us-Af, Italy
Distance from station: ONO 73km
Dati ricevuti: 18/11/2017 20:55
DATI Obsoleti
Few Clouds
Few Clouds
 Vento da NNE
Vento: NNE 7 km/h
Temperatura: 6°C
Temperatura Vento: 4°C
P.to Rugiada: 4°C
Umidità: 87%
Barometro: 1017 hPa
Nuvole: Few Clouds
Visibility: 10 km
Cloud details: Few Clouds 2743 m
2017/11/18 20:55 LIPA 182055Z 02004KT 9999 FEW090 06/04 Q1017 RMK FEW VIS MIN 9999 WIND THR05 /////KT WIND THR23 /////KT A3004 BLU
LIVO - Tarvisio, Italy
Distance from station: N 73km
Dati ricevuti: 19/11/2017 07:55
Coperto
Coperto
 Vento da calmo
Vento: Calma
Temperatura: 0°C
P.to Rugiada: -1°C
Umidità: 93%
Barometro: 1012 hPa
Nuvole: Coperto
Visibility: 10 km
Cloud details: Coperto 457 m
2017/11/19 07:55 LIVO 190755Z 00000KT 9999 OVC015 00/M01 Q1012 RMK OVC VIS MIN 9999
 
LJLJ - Ljubljana/Brnik, Slovenia
Distance from station: ENE 86km
Dati ricevuti: 19/11/2017 08:00
Mist, Coperto
Mist, Coperto
 Vento da Variabile
Vento: Variabile 2 km/h
Temperatura: -1°C
P.to Rugiada: -2°C
Umidità: 93%
Barometro: 1014 hPa
Summary: Mist
Nuvole: Coperto
Visibility: 2 km
Cloud details: Coperto 61 m
2017/11/19 08:00 LJLJ 190800Z VRB01KT 2000 BR OVC002 M01/M02 Q1014 NOSIG
LIPZ - Venezia/Tessera, Italy
Distance from station: OSO 96km
Dati ricevuti: 19/11/2017 07:50
Parz. nuvoloso
Parz. nuvoloso
 Vento da NNE
Vento: NNE 11 km/h
Temperatura: 6°C
Temperatura Vento: 4°C
P.to Rugiada: 2°C
Umidità: 76%
Barometro: 1013 hPa
Nuvole: Parz. nuvoloso
Visibility: 10 km
Cloud details: Parz. nuvoloso 1280 m
2017/11/19 07:50 LIPZ 190750Z 03006KT 9999 SCT042 06/02 Q1013 NOSIG
 
LIPH - Treviso(Civ/It-A, Italy
Distance from station: OSO 105km
Dati ricevuti: 19/11/2017 07:50
Parz. nuvoloso
Parz. nuvoloso
 Vento da Variabile
Vento: Variabile 4 km/h
Temperatura: 4°C
P.to Rugiada: 2°C
Umidità: 87%
Barometro: 1014 hPa
Nuvole: Parz. nuvoloso
Visibility: 10 km
Cloud details: Parz. nuvoloso 914 m
2017/11/19 07:50 LIPH 190750Z VRB02KT 9999 SCT030 04/02 Q1014
LDRI - Rijeka/Omisalj, Croatia
Distance from station: SE 109km
Dati ricevuti: 19/11/2017 08:00
Few Clouds
Few Clouds
 Vento da Variabile
Vento: Variabile 4 km/h
Temperatura: 11°C
P.to Rugiada: 0°C
Umidità: 47%
Barometro: 1013 hPa
Nuvole: Few Clouds
Visibility: 10 km
Cloud details: Few Clouds 1524 m
2017/11/19 08:00 LDRI 190800Z VRB02KT 9999 FEW050 11/M00 Q1013
 
LOWK - Klagenfurt(Civ/M, Austria
Distance from station: NE 110km
Dati ricevuti: 19/11/2017 07:50
Molto nuvoloso
Molto nuvoloso
 Vento da ONO
Vento: ONO 7 km/h
Temperatura: 4°C
Temperatura Vento: 2°C
P.to Rugiada: 1°C
Umidità: 81%
Barometro: 1014 hPa
Nuvole: Molto nuvoloso
Visibility: 10 km
Cloud details: Few Clouds 366 m
Molto nuvoloso 610 m
2017/11/19 07:50 LOWK 190750Z 30004KT 9999 FEW012 BKN020 04/01 Q1014 NOSIG
LIPS - Istrana (it-Afb), Italy
Distance from station: O 111km
Dati ricevuti: 19/11/2017 07:55
Sereno
Sereno
 Vento da N
Vento: N 7 km/h
Temperatura: 3°C
Temperatura Vento: 1°C
P.to Rugiada: 2°C
Umidità: 93%
Barometro: 1013 hPa
Summary: Sereno
Visibility: superiore a 10 km
2017/11/19 07:55 LIPS 190755Z 36004KT CAVOK 03/02 Q1013 RMK FEW FEW200 VIS MIN 9999 WIND THR26 00000KT WIND THR08 00000KT BLU
 
LDPL - Pula, Croatia
Distance from station: SSE 112km
Dati ricevuti: 19/11/2017 08:00
Sereno
Sereno
 Vento da calmo
Vento: Calma
Temperatura: 8°C
P.to Rugiada: 2°C
Umidità: 66%
Barometro: 1012 hPa
Summary: Sereno
Visibility: superiore a 10 km
2017/11/19 08:00 LDPL 190800Z 00000KT CAVOK 08/02 Q1012 BECMG 30008KT
LIVD - Dobbiaco, Italy
Distance from station: NO 138km
Dati ricevuti: 19/11/2017 07:55
Few Clouds
Few Clouds
 Vento da calmo
Vento: Calma
Temperatura: -3°C
P.to Rugiada: -4°C
Umidità: 93%
Barometro: 1013 hPa
Nuvole: Few Clouds
Visibility: 10 km
Cloud details: Few Clouds 610 m
2017/11/19 07:55 LIVD 190755Z 00000KT 9999 FEW020 M03/M04 Q1013 RMK OVC BKN060 VIS MIN 9999
 
LIPU - Padova (civ/It-A, Italy
Distance from station: OSO 139km
Dati ricevuti: 19/11/2017 07:00
DATI Obsoleti
Sereno
Sereno
 Vento da Variabile
Vento: Variabile 2 km/h
Temperatura: 2°C
P.to Rugiada: 2°C
Umidità: 100%
Barometro: 1013 hPa
Summary: Sereno
Visibility: superiore a 10 km
2017/11/19 07:00 LIPU 190700Z VRB01KT CAVOK 02/02 Q1013
LIVR - Rolle Pass, Italy
Distance from station: ONO 142km
Dati ricevuti: 19/11/2017 07:55
Molto nuvoloso
Molto nuvoloso
 Vento da ONO
Vento: ONO 9 km/h
Temperatura: -2°C
Temperatura Vento: -6°C
P.to Rugiada: -12°C
Umidità: 47%
Barometro: 1010 hPa
Nuvole: Molto nuvoloso
Visibility: 10 km
Cloud details: Molto nuvoloso 1524 m
2017/11/19 07:55 LIVR 190755Z 30005KT 9999 BKN050 M02/M12 Q1010 RMK BKN MON LIB VIS MIN 9999
 
LJCE - Cerklje, Slovenia
Distance from station: E 157km
Dati ricevuti: 19/11/2017 08:00
Nebbia, Coperto
Nebbia, Coperto
 Vento da Variabile
Vento: Variabile 4 km/h
Temperatura: 1°C
P.to Rugiada: 0°C
Umidità: 93%
Barometro: 1015 hPa
Summary: Nebbia
Nuvole: Coperto
Visibility: 1 km
Cloud details: Coperto 61 m
2017/11/19 08:00 LJCE 190800Z VRB02KT 0600 FG VV002 01/00 Q1015 RMK RED
LDLO - Losinj Island, Croatia
Distance from station: SSE 159km
Dati ricevuti: 28/10/2017 14:00
DATI Obsoleti
Sereno
Sereno
 Vento da O
Vento: O 11 km/h
Temperatura: 17°C
P.to Rugiada: 4°C
Umidità: 42%
Barometro: 1017 hPa
Summary: Sereno
Visibility: superiore a 10 km
2017/10/28 14:00 LDLO 281400Z 27006KT CAVOK 17/04 Q1017
 
LOXZ - Zeltweg (mil), Austria
Distance from station: NNE 179km
Dati ricevuti: 19/11/2017 07:50
Molto nuvoloso
Molto nuvoloso
 Vento da O
Vento: O 7 km/h
Temperatura: -2°C
Temperatura Vento: -6°C
P.to Rugiada: -3°C
Umidità: 93%
Barometro: 1013 hPa
Nuvole: Molto nuvoloso
Cloud details: Few Clouds 762 m
Molto nuvoloso 1676 m
Molto nuvoloso 4267 m
2017/11/19 07:50 LOXZ 190750Z 27004KT 20KM FEW025SC BKN055SC BKN140AC M02/M03 Q1013 TEMPO -SHSN
LIPB - Bolzano(Civ/It-A, Italy
Distance from station: ONO 181km
Dati ricevuti: 19/11/2017 07:50
Parz. nuvoloso
Parz. nuvoloso
 Vento da NNO
Vento: NNO 2 km/h
Temperatura: 0°C
P.to Rugiada: -2°C
Umidità: 87%
Barometro: 1015 hPa
Nuvole: Parz. nuvoloso
Visibility: 10 km
Cloud details: Few Clouds 2134 m
Parz. nuvoloso 3658 m
2017/11/19 07:50 LIPB 190750Z 33001KT 9999 FEW070 SCT120 00/M02 Q1015